Terminal Aerodrome Forecast
Issued by NWS

Home | Current Version | Previous Version | Text Only | Print | Product List | Glossary On
Versions: 1 2 3 4 5 6 7 8 9 10 11 12 13 14
000
FTUS46 KSGX 312328
TAFONT
TAF
KONT 312328Z 0100/0206 27011G18KT P6SM FEW080 SCT200
     FM010400 VRB05KT P6SM FEW200
     FM011100 VRB04KT 4SM BR OVC010
     FM011600 VRB05KT 6SM HZ FEW010
     FM012000 26012G20KT P6SM FEW250
     FM020200 VRB05KT P6SM FEW250=

USA.gov is the U.S. government's official web portal to all federal, state and local government web resources and services.